Anch, Alaska
Current Conditions -  °F | °C
As of 2:58 AM on Monday 24 Nov 2014 (Local Time) from PAED Reporting Station
Overcast Overcast  
Wind Chill: -6°   Ceiling: 7000
Heat Index: -2°   Visibility: 10mi
Dew Point: -4°   Wind: 7mph
Humidity: 88%   Direction: 70°ENE
Pressure: 29.61"   Gusts: NA
Location:  61.2265°N, 149.62°W
Report Text: PAED 241158Z AUTO 07006KT 10SM OVC070 M02/M04 A2961 RMK AO2 SLP025 T10221039 11022 21058 52007 $
Loading
Personal Weather Stations






























Interactive Weather Map New forecast layout! Learn more

10-Day Weather Forecast

Advertisements
Track Severe Weather on mobile